Time;durP1;ratioP1;P1;durP2;ratioP2;P2;SDS_P1;SDS_P2;PMS_P1;PMS_P2;Temp;Humidity;BMP_temperature;BMP_pressure;BME280_temperature;BME280_humidity;BME280_pressure;Samples;Min_cycle;Max_cycle;Signal;HPM_P1;HPM_P2
2022/01/15 00:01:26;;;;;;;;;;;;;;;;;;5073157;28;762;-80
2022/01/15 00:03:51;;;;;;;;;;;;;;;;;;5073783;28;1027;-80
2022/01/15 00:06:17;;;;;;;;;;;;;;;;;;5055947;28;1894;-80
2022/01/15 00:08:42;;;;;;;;;;;;;;;;;;5074220;28;887;-80
2022/01/15 00:11:07;;;;;;;;;;;;;;;;;;5072770;28;1436;-80
2022/01/15 00:13:33;;;;;;;;;;;;;;;;;;5073745;28;844;-81
2022/01/15 00:16:29;;;;;;;;;;;;;;;;;;5073871;28;1031;-80
2022/01/15 00:18:48;;;;;;;;;;;;;;;;;;5073774;28;1234;-80
2022/01/15 00:21:14;;;;;;;;;;;;;;;;;;5055416;28;1590;-80
2022/01/15 00:23:39;;;;;;;;;;;;;;;;;;5073923;28;841;-81
2022/01/15 00:26:05;;;;;;;;;;;;;;;;;;5073512;28;1977;-80
2022/01/15 00:28:30;;;;;;;;;;;;;;;;;;5073098;28;793;-80
2022/01/15 00:30:55;;;;;;;;;;;;;;;;;;5072469;28;872;-80
2022/01/15 00:33:20;;;;;;;;;;;;;;;;;;5055753;28;1593;-80
2022/01/15 00:35:46;;;;;;;;;;;;;;;;;;5072225;28;979;-80
2022/01/15 00:38:11;;;;;;;;;;;;;;;;;;5072423;28;1399;-80
2022/01/15 00:40:36;;;;;;;;;;;;;;;;;;5072420;28;798;-81
2022/01/15 00:43:02;;;;;;;;;;;;;;;;;;5084653;28;1094;-81
2022/01/15 00:45:32;;;;;;;;;;;;;;;;;;5093363;28;1900;-80
2022/01/15 00:47:57;;;;;;;;;;;;;;;;;;5094384;28;761;-80
2022/01/15 00:50:22;;;;;;;;;;;;;;;;;;5094316;28;1027;-80
2022/01/15 00:52:48;;;;;;;;;;;;;;;;;;5093421;28;3219;-81
2022/01/15 00:55:14;;;;;;;;;;;;;;;;;;5095055;28;1034;-80
2022/01/15 00:57:39;;;;;;;;;;;;;;;;;;5080591;28;999;-80
2022/01/15 01:00:06;;;;;;;;;;;;;;;;;;5078530;28;754;-80
2022/01/15 01:02:31;;;;;;;;;;;;;;;;;;5078564;28;1226;-79
2022/01/15 01:04:57;;;;;;;;;;;;;;;;;;5061344;28;1913;-80
2022/01/15 01:07:22;;;;;;;;;;;;;;;;;;5076786;28;1047;-80
2022/01/15 01:10:06;;;;;;;;;;;;;;;;;;5077382;28;1262;-80
2022/01/15 01:20:53;;;;;;;;;;;;;;;;;;5080854;28;689;-79
2022/01/15 01:23:19;;;;;;;;;;;;;;;;;;5076192;28;1271;-80
2022/01/15 01:25:48;;;;;;;;;;;;;;;;;;5075045;28;1914;-80
2022/01/15 01:28:22;;;;;;;;;;;;;;;;;;5060410;28;1236;-80
2022/01/15 01:36:04;;;;;;;;;;;;;;;;;;5075042;28;828;-81
2022/01/15 01:38:34;;;;;;;;;;;;;;;;;;5075627;28;1286;-81
2022/01/15 01:41:01;;;;;;;;;;;;;;;;;;5076688;28;880;-81
2022/01/15 01:43:43;;;;;;;;;;;;;;;;;;5077943;28;836;-81
2022/01/15 01:49:04;;;;;;;;;;;;;;;;;;5070342;28;1360;-81
2022/01/15 01:51:31;;;;;;;;;;;;;;;;;;5082043;28;858;-81
2022/01/15 01:53:58;;;;;;;;;;;;;;;;;;5082124;28;1199;-80
2022/01/15 01:56:23;;;;;;;;;;;;;;;;;;5085687;28;1128;-81
2022/01/15 01:58:49;;;;;;;;;;;;;;;;;;5078587;28;1231;-81
2022/01/15 02:01:14;;;;;;;;;;;;;;;;;;5077878;28;1130;-80
2022/01/15 02:03:39;;;;;;;;;;;;;;;;;;5077438;28;1128;-81
2022/01/15 02:06:05;;;;;;;;;;;;;;;;;;5076484;28;1910;-81
2022/01/15 02:08:34;;;;;;;;;;;;;;;;;;5076665;28;1010;-80
2022/01/15 02:11:02;;;;;;;;;;;;;;;;;;5074806;28;1342;-80
2022/01/15 02:13:28;;;;;;;;;;;;;;;;;;5074438;28;1163;-81
2022/01/15 02:15:55;;;;;;;;;;;;;;;;;;5057690;28;1264;-80
2022/01/15 02:18:20;;;;;;;;;;;;;;;;;;5074246;28;1238;-80
2022/01/15 02:23:33;;;;;;;;;;;;;;;;;;5075281;28;678;-81
2022/01/15 02:26:02;;;;;;;;;;;;;;;;;;5073629;28;1918;-80
2022/01/15 02:28:29;;;;;;;;;;;;;;;;;;5075193;28;1011;-80
2022/01/15 02:30:56;;;;;;;;;;;;;;;;;;5075630;28;738;-81
2022/01/15 02:33:21;;;;;;;;;;;;;;;;;;5074967;28;928;-81
2022/01/15 02:35:47;;;;;;;;;;;;;;;;;;5074811;28;1061;-80
2022/01/15 02:38:12;;;;;;;;;;;;;;;;;;5073574;28;1236;-80
2022/01/15 02:40:38;;;;;;;;;;;;;;;;;;5055703;28;3394;-80
2022/01/15 02:43:04;;;;;;;;;;;;;;;;;;5073550;28;1259;-80
2022/01/15 02:45:32;;;;;;;;;;;;;;;;;;5074960;28;1918;-80
2022/01/15 02:48:00;;;;;;;;;;;;;;;;;;5073489;28;1369;-80
2022/01/15 02:50:25;;;;;;;;;;;;;;;;;;5073061;28;1279;-80
2022/01/15 02:52:51;;;;;;;;;;;;;;;;;;5073783;28;936;-80
2022/01/15 02:55:16;;;;;;;;;;;;;;;;;;5072942;28;1385;-80
2022/01/15 02:57:41;;;;;;;;;;;;;;;;;;5056143;28;1441;-80
2022/01/15 03:00:07;;;;;;;;;;;;;;;;;;5073682;28;1235;-80
2022/01/15 03:02:33;;;;;;;;;;;;;;;;;;5073955;28;896;-80
2022/01/15 03:04:58;;;;;;;;;;;;;;;;;;5056725;28;1964;-80
2022/01/15 03:07:24;;;;;;;;;;;;;;;;;;5072809;28;1306;-81
2022/01/15 03:09:49;;;;;;;;;;;;;;;;;;5073750;28;1499;-80
2022/01/15 03:12:15;;;;;;;;;;;;;;;;;;5072801;28;1302;-81
2022/01/15 03:14:42;;;;;;;;;;;;;;;;;;5073026;28;1325;-80
2022/01/15 03:17:07;;;;;;;;;;;;;;;;;;5056481;28;1381;-80
2022/01/15 03:19:32;;;;;;;;;;;;;;;;;;5074605;28;927;-80
2022/01/15 03:21:57;;;;;;;;;;;;;;;;;;5074758;28;983;-80
2022/01/15 03:24:23;;;;;;;;;;;;;;;;;;5074290;28;873;-80
2022/01/15 03:26:49;;;;;;;;;;;;;;;;;;5072855;28;2060;-81
2022/01/15 03:29:14;;;;;;;;;;;;;;;;;;5056399;28;1267;-80
2022/01/15 03:31:39;;;;;;;;;;;;;;;;;;5074940;28;961;-80
2022/01/15 03:34:04;;;;;;;;;;;;;;;;;;5073008;28;828;-81
2022/01/15 03:36:31;;;;;;;;;;;;;;;;;;5072608;28;876;-81
2022/01/15 03:38:57;;;;;;;;;;;;;;;;;;5056051;28;1288;-81
2022/01/15 03:41:22;;;;;;;;;;;;;;;;;;5055919;28;1330;-82
2022/01/15 03:43:48;;;;;;;;;;;;;;;;;;5072996;28;1196;-81
2022/01/15 03:46:13;;;;;;;;;;;;;;;;;;5073479;28;1910;-81
2022/01/15 03:48:38;;;;;;;;;;;;;;;;;;5077898;28;1023;-81
2022/01/15 03:51:04;;;;;;;;;;;;;;;;;;5077640;28;967;-81
2022/01/15 03:53:29;;;;;;;;;;;;;;;;;;5055524;28;1287;-81
2022/01/15 03:55:54;;;;;;;;;;;;;;;;;;5072392;28;1269;-81
2022/01/15 03:58:20;;;;;;;;;;;;;;;;;;5055613;28;1280;-81
2022/01/15 04:00:45;;;;;;;;;;;;;;;;;;5071864;28;1069;-81
2022/01/15 04:03:11;;;;;;;;;;;;;;;;;;5071989;28;959;-81
2022/01/15 04:05:36;;;;;;;;;;;;;;;;;;5072856;28;1910;-81
2022/01/15 04:08:01;;;;;;;;;;;;;;;;;;5055076;28;1195;-81
2022/01/15 04:10:27;;;;;;;;;;;;;;;;;;5072640;28;951;-80
2022/01/15 04:12:52;;;;;;;;;;;;;;;;;;5055243;28;1272;-81
2022/01/15 04:15:18;;;;;;;;;;;;;;;;;;5072716;28;908;-80
2022/01/15 04:17:45;;;;;;;;;;;;;;;;;;5071568;28;932;-80
2022/01/15 04:20:11;;;;;;;;;;;;;;;;;;5071283;28;1534;-81
2022/01/15 04:22:36;;;;;;;;;;;;;;;;;;5054544;28;1268;-81
2022/01/15 04:25:01;;;;;;;;;;;;;;;;;;5071172;28;1972;-81
2022/01/15 04:27:26;;;;;;;;;;;;;;;;;;5068947;28;2536;-81
2022/01/15 04:29:52;;;;;;;;;;;;;;;;;;5051466;28;909;-81
2022/01/15 04:32:17;;;;;;;;;;;;;;;;;;5051590;28;1360;-80
2022/01/15 04:34:43;;;;;;;;;;;;;;;;;;5052554;28;850;-80
2022/01/15 04:37:14;;;;;;;;;;;;;;;;;;5051190;28;1398;-80
2022/01/15 04:39:41;;;;;;;;;;;;;;;;;;5052211;28;1347;-81
2022/01/15 04:42:07;;;;;;;;;;;;;;;;;;5051267;28;1222;-80
2022/01/15 04:44:32;;;;;;;;;;;;;;;;;;5051135;28;1163;-80
2022/01/15 04:46:59;;;;;;;;;;;;;;;;;;5051191;28;1902;-81
2022/01/15 04:49:24;;;;;;;;;;;;;;;;;;5034789;28;1419;-82
2022/01/15 04:51:49;;;;;;;;;;;;;;;;;;5052562;28;810;-82
2022/01/15 04:54:14;;;;;;;;;;;;;;;;;;5034666;28;1207;-80
2022/01/15 04:56:40;;;;;;;;;;;;;;;;;;5050983;28;1148;-80
2022/01/15 04:59:05;;;;;;;;;;;;;;;;;;5052482;28;758;-81
2022/01/15 05:01:30;;;;;;;;;;;;;;;;;;5050907;28;801;-81
2022/01/15 05:03:56;;;;;;;;;;;;;;;;;;5034420;28;1188;-81
2022/01/15 05:06:22;;;;;;;;;;;;;;;;;;5052201;28;1906;-81
2022/01/15 05:08:51;;;;;;;;;;;;;;;;;;5034971;28;1180;-81
2022/01/15 05:11:30;;;;;;;;;;;;;;;;;;5035365;28;1339;-81
2022/01/15 05:13:55;;;;;;;;;;;;;;;;;;5051439;28;1181;-81
2022/01/15 05:16:21;;;;;;;;;;;;;;;;;;5055953;28;923;-81
2022/01/15 05:18:46;;;;;;;;;;;;;;;;;;5055739;28;1240;-82
2022/01/15 05:21:11;;;;;;;;;;;;;;;;;;5055851;28;904;-82
2022/01/15 05:23:37;;;;;;;;;;;;;;;;;;5055425;28;1065;-81
2022/01/15 05:26:02;;;;;;;;;;;;;;;;;;5057370;28;1902;-80
2022/01/15 05:28:27;;;;;;;;;;;;;;;;;;5056691;28;1115;-80
2022/01/15 05:30:52;;;;;;;;;;;;;;;;;;5055667;28;1015;-81
2022/01/15 05:33:18;;;;;;;;;;;;;;;;;;5057134;28;767;-81
2022/01/15 05:35:43;;;;;;;;;;;;;;;;;;5057847;28;935;-80
2022/01/15 05:38:08;;;;;;;;;;;;;;;;;;5057013;28;1074;-81
2022/01/15 05:40:34;;;;;;;;;;;;;;;;;;5054935;28;1228;-81
2022/01/15 05:42:59;;;;;;;;;;;;;;;;;;5038842;28;1799;-81
2022/01/15 05:45:24;;;;;;;;;;;;;;;;;;5055196;28;1948;-81
2022/01/15 05:47:50;;;;;;;;;;;;;;;;;;5056667;28;892;-75
2022/01/15 05:50:15;;;;;;;;;;;;;;;;;;5056158;28;876;-75
2022/01/15 05:52:41;;;;;;;;;;;;;;;;;;5055184;28;1156;-81
2022/01/15 05:55:06;;;;;;;;;;;;;;;;;;5038085;28;1252;-81
2022/01/15 05:57:32;;;;;;;;;;;;;;;;;;5055443;28;973;-81
2022/01/15 05:59:57;;;;;;;;;;;;;;;;;;5056449;28;817;-81
2022/01/15 06:02:23;;;;;;;;;;;;;;;;;;5055313;28;1358;-81
2022/01/15 06:04:49;;;;;;;;;;;;;;;;;;5038337;28;1969;-80
2022/01/15 06:07:14;;;;;;;;;;;;;;;;;;5039035;28;1215;-80
2022/01/15 06:09:40;;;;;;;;;;;;;;;;;;5054759;28;1128;-80
2022/01/15 06:12:05;;;;;;;;;;;;;;;;;;5054881;28;1156;-80
2022/01/15 06:14:31;;;;;;;;;;;;;;;;;;5054138;28;1305;-80
2022/01/15 06:16:57;;;;;;;;;;;;;;;;;;5067742;28;2517;-80
2022/01/15 06:19:22;;;;;;;;;;;;;;;;;;5076157;28;930;-80
2022/01/15 06:21:47;;;;;;;;;;;;;;;;;;5074165;28;1254;-79
2022/01/15 06:24:13;;;;;;;;;;;;;;;;;;5073938;28;1248;-80
2022/01/15 06:26:38;;;;;;;;;;;;;;;;;;5074238;28;1961;-80
2022/01/15 06:29:03;;;;;;;;;;;;;;;;;;5073413;28;1227;-80
2022/01/15 06:31:30;;;;;;;;;;;;;;;;;;5074858;28;884;-79
2022/01/15 06:33:56;;;;;;;;;;;;;;;;;;5073564;28;1322;-80
2022/01/15 06:36:21;;;;;;;;;;;;;;;;;;5073980;28;967;-80
2022/01/15 06:38:47;;;;;;;;;;;;;;;;;;5075086;28;1057;-80
2022/01/15 06:41:12;;;;;;;;;;;;;;;;;;5073948;28;833;-81
2022/01/15 06:43:37;;;;;;;;;;;;;;;;;;5073304;28;1229;-80
2022/01/15 06:46:04;;;;;;;;;;;;;;;;;;5075083;28;1969;-80
2022/01/15 06:48:30;;;;;;;;;;;;;;;;;;5073625;28;1344;-80
2022/01/15 06:50:55;;;;;;;;;;;;;;;;;;5056811;28;1334;-80
2022/01/15 06:53:20;;;;;;;;;;;;;;;;;;5074113;28;1283;-79
2022/01/15 06:55:49;;;;;;;;;;;;;;;;;;5074943;28;779;-80
2022/01/15 06:58:14;;;;;;;;;;;;;;;;;;5074280;28;935;-80
2022/01/15 07:00:40;;;;;;;;;;;;;;;;;;5072801;28;1210;-79
2022/01/15 07:03:05;;;;;;;;;;;;;;;;;;5057412;28;1144;-79
2022/01/15 07:05:31;;;;;;;;;;;;;;;;;;5073129;28;1959;-80
2022/01/15 07:07:56;;;;;;;;;;;;;;;;;;5054367;28;1236;-80
2022/01/15 07:10:22;;;;;;;;;;;;;;;;;;5073419;28;1157;-80
2022/01/15 07:12:47;;;;;;;;;;;;;;;;;;5072408;28;1274;-80
2022/01/15 07:15:12;;;;;;;;;;;;;;;;;;5072635;28;1148;-80
2022/01/15 07:17:44;;;;;;;;;;;;;;;;;;5074120;28;1057;-80
2022/01/15 07:20:10;;;;;;;;;;;;;;;;;;5074871;28;861;-80
2022/01/15 07:22:35;;;;;;;;;;;;;;;;;;5073741;28;922;-80
2022/01/15 07:25:01;;;;;;;;;;;;;;;;;;5074108;28;1888;-79
2022/01/15 07:27:26;;;;;;;;;;;;;;;;;;5074702;28;1268;-79
2022/01/15 07:29:51;;;;;;;;;;;;;;;;;;5055849;28;1199;-79
2022/01/15 07:32:17;;;;;;;;;;;;;;;;;;5073382;28;1030;-79
2022/01/15 07:34:42;;;;;;;;;;;;;;;;;;5072290;28;846;-79
2022/01/15 07:37:08;;;;;;;;;;;;;;;;;;5055425;28;1150;-80
2022/01/15 07:39:35;;;;;;;;;;;;;;;;;;5072939;28;1089;-79
2022/01/15 07:42:00;;;;;;;;;;;;;;;;;;5072329;28;860;-79
2022/01/15 07:44:25;;;;;;;;;;;;;;;;;;5073433;28;805;-80
2022/01/15 07:46:51;;;;;;;;;;;;;;;;;;5055233;28;1918;-79
2022/01/15 07:49:16;;;;;;;;;;;;;;;;;;5055324;28;1322;-79
2022/01/15 07:51:41;;;;;;;;;;;;;;;;;;5072754;28;904;-80
2022/01/15 07:54:07;;;;;;;;;;;;;;;;;;5055715;28;1205;-80
2022/01/15 07:56:32;;;;;;;;;;;;;;;;;;5073401;28;825;-79
2022/01/15 07:58:57;;;;;;;;;;;;;;;;;;5072098;28;1082;-80
2022/01/15 08:01:23;;;;;;;;;;;;;;;;;;5072344;28;920;-79
2022/01/15 08:03:48;;;;;;;;;;;;;;;;;;5053903;28;2716;-80
2022/01/15 08:06:14;;;;;;;;;;;;;;;;;;5071712;28;1959;-80
2022/01/15 08:08:40;;;;;;;;;;;;;;;;;;5072535;28;952;-80
2022/01/15 08:11:05;;;;;;;;;;;;;;;;;;5071982;28;857;-79
2022/01/15 08:13:31;;;;;;;;;;;;;;;;;;5054855;28;1240;-78
2022/01/15 08:15:57;;;;;;;;;;;;;;;;;;5071303;28;1162;-78
2022/01/15 08:18:23;;;;;;;;;;;;;;;;;;5054880;28;1409;-78
2022/01/15 08:20:49;;;;;;;;;;;;;;;;;;5071397;28;908;-78
2022/01/15 08:23:14;;;;;;;;;;;;;;;;;;5071008;28;1274;-78
2022/01/15 08:25:39;;;;;;;;;;;;;;;;;;5071741;28;1965;-78
2022/01/15 08:28:05;;;;;;;;;;;;;;;;;;5072504;28;892;-78
2022/01/15 08:30:30;;;;;;;;;;;;;;;;;;5073575;28;887;-78
2022/01/15 08:32:55;;;;;;;;;;;;;;;;;;5073271;28;829;-77
2022/01/15 08:35:21;;;;;;;;;;;;;;;;;;5073520;28;983;-78
2022/01/15 08:37:46;;;;;;;;;;;;;;;;;;5071319;28;1207;-78
2022/01/15 08:40:13;;;;;;;;;;;;;;;;;;5071939;28;1123;-79
2022/01/15 08:42:39;;;;;;;;;;;;;;;;;;5071847;28;1334;-78
2022/01/15 08:45:06;;;;;;;;;;;;;;;;;;5055719;28;1913;-78
2022/01/15 08:47:32;;;;;;;;;;;;;;;;;;5071023;28;1264;-78
2022/01/15 08:49:57;;;;;;;;;;;;;;;;;;5053442;28;1265;-78
2022/01/15 08:52:23;;;;;;;;;;;;;;;;;;5073518;28;896;-78
2022/01/15 08:54:49;;;;;;;;;;;;;;;;;;5071229;28;1203;-78
2022/01/15 08:57:14;;;;;;;;;;;;;;;;;;5054736;28;1164;-79
2022/01/15 08:59:39;;;;;;;;;;;;;;;;;;5070844;28;1283;-82
2022/01/15 09:02:05;;;;;;;;;;;;;;;;;;5073157;28;923;-81
2022/01/15 09:04:31;;;;;;;;;;;;;;;;;;5071827;28;848;-81
2022/01/15 09:06:56;;;;;;;;;;;;;;;;;;5071597;28;1947;-80
2022/01/15 09:09:21;;;;;;;;;;;;;;;;;;5066839;28;2663;-80
2022/01/15 09:11:47;;;;;;;;;;;;;;;;;;5070562;28;829;-81
2022/01/15 09:14:12;;;;;;;;;;;;;;;;;;5053061;28;1218;-80
2022/01/15 09:16:38;;;;;;;;;;;;;;;;;;5070243;28;1220;-80
2022/01/15 09:19:03;;;;;;;;;;;;;;;;;;5071287;28;865;-81
2022/01/15 09:21:29;;;;;;;;;;;;;;;;;;5069744;28;1071;-80
2022/01/15 09:23:54;;;;;;;;;;;;;;;;;;5052843;28;1389;-81
2022/01/15 09:26:23;;;;;;;;;;;;;;;;;;5069965;28;1898;-80
2022/01/15 09:31:32;;;;;;;;;;;;;;;;;;5071216;28;697;-80
2022/01/15 09:33:57;;;;;;;;;;;;;;;;;;5069526;28;1183;-80
2022/01/15 09:36:23;;;;;;;;;;;;;;;;;;5070188;28;978;-80
2022/01/15 09:38:49;;;;;;;;;;;;;;;;;;5070244;28;1202;-80
2022/01/15 09:41:14;;;;;;;;;;;;;;;;;;5071727;28;865;-80
2022/01/15 09:43:40;;;;;;;;;;;;;;;;;;5071110;28;836;-80
2022/01/15 09:46:06;;;;;;;;;;;;;;;;;;5071405;28;1972;-79
2022/01/15 09:48:32;;;;;;;;;;;;;;;;;;5070465;28;1248;-81
2022/01/15 09:50:58;;;;;;;;;;;;;;;;;;5053246;28;1337;-80
2022/01/15 09:53:23;;;;;;;;;;;;;;;;;;5070144;28;1260;-80
2022/01/15 09:55:49;;;;;;;;;;;;;;;;;;5052973;28;1237;-81
2022/01/15 09:58:15;;;;;;;;;;;;;;;;;;5070199;28;1159;-80
2022/01/15 10:00:40;;;;;;;;;;;;;;;;;;5071180;28;884;-80
2022/01/15 10:03:06;;;;;;;;;;;;;;;;;;5073243;28;1143;-80
2022/01/15 10:05:31;;;;;;;;;;;;;;;;;;5075069;28;1965;-80
2022/01/15 10:07:56;;;;;;;;;;;;;;;;;;5073556;28;1053;-77
2022/01/15 10:10:23;;;;;;;;;;;;;;;;;;5074079;28;1197;-77
2022/01/15 10:12:49;;;;;;;;;;;;;;;;;;5073135;28;1205;-77
2022/01/15 10:15:15;;;;;;;;;;;;;;;;;;5075565;28;869;-77
2022/01/15 10:17:41;;;;;;;;;;;;;;;;;;5073819;28;1155;-77
2022/01/15 10:20:10;;;;;;;;;;;;;;;;;;5074818;28;884;-76
2022/01/15 10:22:40;;;;;;;;;;;;;;;;;;5075207;28;1062;-77
2022/01/15 10:25:07;;;;;;;;;;;;;;;;;;5074211;28;1902;-76
2022/01/15 10:27:40;;;;;;;;;;;;;;;;;;5076377;28;1254;-76
2022/01/15 10:30:08;;;;;;;;;;;;;;;;;;5076862;28;1289;-80
2022/01/15 10:32:35;;;;;;;;;;;;;;;;;;5077117;28;1355;-80
2022/01/15 10:35:08;;;;;;;;;;;;;;;;;;5076327;28;1262;-81
2022/01/15 10:37:36;;;;;;;;;;;;;;;;;;5076016;28;1267;-80
2022/01/15 10:40:06;;;;;;;;;;;;;;;;;;5058550;28;1172;-77
2022/01/15 10:42:32;;;;;;;;;;;;;;;;;;5076295;28;1201;-76
2022/01/15 10:44:58;;;;;;;;;;;;;;;;;;5075190;28;1961;-77
2022/01/15 10:47:26;;;;;;;;;;;;;;;;;;5076665;28;879;-77
2022/01/15 10:49:51;;;;;;;;;;;;;;;;;;5075119;28;1194;-77
2022/01/15 10:52:21;;;;;;;;;;;;;;;;;;5075616;28;1198;-77
2022/01/15 10:54:51;;;;;;;;;;;;;;;;;;5075647;28;1167;-76
2022/01/15 10:57:18;;;;;;;;;;;;;;;;;;5077293;28;905;-77
2022/01/15 10:59:54;;;;;;;;;;;;;;;;;;5080038;28;1317;-76
2022/01/15 11:02:19;;;;;;;;;;;;;;;;;;5096051;28;947;-77
2022/01/15 11:04:45;;;;;;;;;;;;;;;;;;5090125;28;1156;-77
2022/01/15 11:07:14;;;;;;;;;;;;;;;;;;5059766;28;1885;-77
2022/01/15 11:09:42;;;;;;;;;;;;;;;;;;5077075;28;950;-77
2022/01/15 11:12:09;;;;;;;;;;;;;;;;;;5075803;28;1115;-80
2022/01/15 11:14:34;;;;;;;;;;;;;;;;;;5074982;28;1171;-80
2022/01/15 11:17:00;;;;;;;;;;;;;;;;;;5075194;28;1167;-81
2022/01/15 11:19:26;;;;;;;;;;;;;;;;;;5076798;28;806;-81
2022/01/15 11:21:52;;;;;;;;;;;;;;;;;;5079512;28;1073;-80
2022/01/15 11:24:18;;;;;;;;;;;;;;;;;;5075699;28;845;-81
2022/01/15 11:26:43;;;;;;;;;;;;;;;;;;5057032;28;1944;-80
2022/01/15 11:29:10;;;;;;;;;;;;;;;;;;5075539;28;785;-80
2022/01/15 11:31:36;;;;;;;;;;;;;;;;;;5073830;28;1226;-80
2022/01/15 11:34:03;;;;;;;;;;;;;;;;;;5073441;28;1395;-80
2022/01/15 11:36:32;;;;;;;;;;;;;;;;;;5075056;28;932;-80
2022/01/15 11:38:59;;;;;;;;;;;;;;;;;;5072979;28;1242;-80
2022/01/15 11:41:27;;;;;;;;;;;;;;;;;;5074741;28;880;-80
2022/01/15 11:43:56;;;;;;;;;;;;;;;;;;5074836;28;885;-80
2022/01/15 11:46:22;;;;;;;;;;;;;;;;;;5074578;28;1909;-80
2022/01/15 11:48:47;;;;;;;;;;;;;;;;;;5073277;28;1231;-81
2022/01/15 11:51:13;;;;;;;;;;;;;;;;;;5074965;28;750;-81
2022/01/15 11:53:48;;;;;;;;;;;;;;;;;;5073393;28;1389;-80
2022/01/15 11:56:17;;;;;;;;;;;;;;;;;;5075051;28;885;-81
2022/01/15 11:58:42;;;;;;;;;;;;;;;;;;5075112;28;924;-81
2022/01/15 12:01:27;;;;;;;;;;;;;;;;;;5073401;28;1288;-81
2022/01/15 12:04:13;;;;;;;;;;;;;;;;;;5074537;28;1135;-81
2022/01/15 12:06:57;;;;;;;;;;;;;;;;;;5074467;28;1913;-81
2022/01/15 12:09:30;;;;;;;;;;;;;;;;;;5072990;28;1197;-81
2022/01/15 12:11:56;;;;;;;;;;;;;;;;;;5072858;28;1304;-81
2022/01/15 12:14:40;;;;;;;;;;;;;;;;;;5074126;28;885;-81
2022/01/15 12:17:24;;;;;;;;;;;;;;;;;;5073066;28;1174;-80
2022/01/15 12:19:49;;;;;;;;;;;;;;;;;;5073398;28;857;-80
2022/01/15 12:22:34;;;;;;;;;;;;;;;;;;5073342;28;834;-80
2022/01/15 12:25:01;;;;;;;;;;;;;;;;;;5071498;28;1957;-80
2022/01/15 12:27:26;;;;;;;;;;;;;;;;;;5071903;28;1080;-81
2022/01/15 12:30:00;;;;;;;;;;;;;;;;;;5072516;28;840;-81
2022/01/15 12:32:26;;;;;;;;;;;;;;;;;;5072811;28;892;-81
2022/01/15 12:34:52;;;;;;;;;;;;;;;;;;5072157;28;908;-81
2022/01/15 12:37:17;;;;;;;;;;;;;;;;;;5070817;28;1359;-81
2022/01/15 12:39:43;;;;;;;;;;;;;;;;;;5053881;28;1184;-80
2022/01/15 12:42:10;;;;;;;;;;;;;;;;;;5070578;28;1119;-80
2022/01/15 12:44:54;;;;;;;;;;;;;;;;;;5070929;28;1262;-81
2022/01/15 12:47:20;;;;;;;;;;;;;;;;;;5070366;28;1913;-80
2022/01/15 12:49:50;;;;;;;;;;;;;;;;;;5071727;28;833;-81
2022/01/15 12:52:19;;;;;;;;;;;;;;;;;;5071959;28;844;-81
2022/01/15 12:54:49;;;;;;;;;;;;;;;;;;5069922;28;1400;-81
2022/01/15 12:57:34;;;;;;;;;;;;;;;;;;5072484;28;817;-81
2022/01/15 13:00:04;;;;;;;;;;;;;;;;;;5071107;28;1218;-81
2022/01/15 13:02:29;;;;;;;;;;;;;;;;;;5072220;28;785;-81
2022/01/15 13:04:55;;;;;;;;;;;;;;;;;;5053490;28;1135;-81
2022/01/15 13:07:21;;;;;;;;;;;;;;;;;;5071867;28;1959;-81
2022/01/15 13:09:47;;;;;;;;;;;;;;;;;;5071842;28;997;-80
2022/01/15 13:12:12;;;;;;;;;;;;;;;;;;5070134;28;868;-81
2022/01/15 13:14:38;;;;;;;;;;;;;;;;;;5070813;28;849;-81
2022/01/15 13:17:04;;;;;;;;;;;;;;;;;;5070412;28;1337;-81
2022/01/15 13:19:37;;;;;;;;;;;;;;;;;;5071186;28;1233;-80
2022/01/15 13:22:05;;;;;;;;;;;;;;;;;;5053817;28;1077;-81
2022/01/15 13:24:31;;;;;;;;;;;;;;;;;;5070899;28;1316;-80
2022/01/15 13:26:58;;;;;;;;;;;;;;;;;;5070527;28;1905;-80
2022/01/15 13:29:35;;;;;;;;;;;;;;;;;;5071816;28;802;-81
2022/01/15 13:32:01;;;;;;;;;;;;;;;;;;5070316;28;1153;-80
2022/01/15 13:34:28;;;;;;;;;;;;;;;;;;5071029;28;1137;-80
2022/01/15 13:36:53;;;;;;;;;;;;;;;;;;5072073;28;1247;-81
2022/01/15 13:39:19;;;;;;;;;;;;;;;;;;5075820;28;1097;-80
2022/01/15 13:41:44;;;;;;;;;;;;;;;;;;5074790;28;880;-80
2022/01/15 13:44:11;;;;;;;;;;;;;;;;;;5074531;28;872;-81
2022/01/15 13:46:38;;;;;;;;;;;;;;;;;;5057755;28;1902;-80
2022/01/15 13:49:10;;;;;;;;;;;;;;;;;;5074393;28;1179;-81
2022/01/15 13:54:28;;;;;;;;;;;;;;;;;;5075904;28;678;-80
2022/01/15 13:57:02;;;;;;;;;;;;;;;;;;5075037;28;1326;-80
2022/01/15 13:59:27;;;;;;;;;;;;;;;;;;5077711;28;817;-80
2022/01/15 14:01:57;;;;;;;;;;;;;;;;;;5076408;28;840;-80
2022/01/15 14:04:30;;;;;;;;;;;;;;;;;;5074447;28;1143;-76
2022/01/15 14:06:58;;;;;;;;;;;;;;;;;;5073374;28;1964;-77
2022/01/15 14:09:24;;;;;;;;;;;;;;;;;;5073940;28;1175;-80
2022/01/15 14:11:59;;;;;;;;;;;;;;;;;;5076722;28;833;-81
2022/01/15 14:14:25;;;;;;;;;;;;;;;;;;5074399;28;1157;-81
2022/01/15 14:16:54;;;;;;;;;;;;;;;;;;5057689;28;1239;-81
2022/01/15 14:19:38;;;;;;;;;;;;;;;;;;5073887;28;1136;-80
2022/01/15 14:22:23;;;;;;;;;;;;;;;;;;5073287;28;1293;-79
2022/01/15 14:24:50;;;;;;;;;;;;;;;;;;5072551;28;1244;-78
2022/01/15 14:27:23;;;;;;;;;;;;;;;;;;5073779;28;1886;-78
2022/01/15 14:29:49;;;;;;;;;;;;;;;;;;5073947;28;1173;-77
2022/01/15 14:32:16;;;;;;;;;;;;;;;;;;5073696;28;836;-78
2022/01/15 14:34:41;;;;;;;;;;;;;;;;;;5075204;28;912;-79
2022/01/15 14:37:07;;;;;;;;;;;;;;;;;;5073949;28;817;-78
2022/01/15 14:39:33;;;;;;;;;;;;;;;;;;5075077;28;1123;-78
2022/01/15 14:41:58;;;;;;;;;;;;;;;;;;5074002;28;806;-79
2022/01/15 14:44:23;;;;;;;;;;;;;;;;;;5077011;28;944;-78
2022/01/15 14:46:49;;;;;;;;;;;;;;;;;;5074358;28;1910;-78
2022/01/15 14:49:14;;;;;;;;;;;;;;;;;;5073449;28;845;-78
2022/01/15 14:51:39;;;;;;;;;;;;;;;;;;5073963;28;986;-78
2022/01/15 14:54:05;;;;;;;;;;;;;;;;;;5073904;28;825;-78
2022/01/15 14:56:30;;;;;;;;;;;;;;;;;;5055973;28;1195;-78
2022/01/15 14:58:55;;;;;;;;;;;;;;;;;;5051869;28;3061;-78
2022/01/15 15:01:21;;;;;;;;;;;;;;;;;;5074565;28;1377;-78
2022/01/15 15:03:46;;;;;;;;;;;;;;;;;;5074846;28;868;-78
2022/01/15 15:06:12;;;;;;;;;;;;;;;;;;5074737;28;1867;-78
2022/01/15 15:08:37;;;;;;;;;;;;;;;;;;5056623;28;1171;-78
2022/01/15 15:11:03;;;;;;;;;;;;;;;;;;5072802;28;1304;-78
2022/01/15 15:13:30;;;;;;;;;;;;;;;;;;5072781;28;1305;-77
2022/01/15 15:15:56;;;;;;;;;;;;;;;;;;5072616;28;1282;-77
2022/01/15 15:18:21;;;;;;;;;;;;;;;;;;5072950;28;1305;-78
2022/01/15 15:20:49;;;;;;;;;;;;;;;;;;5073985;28;963;-78
2022/01/15 15:23:15;;;;;;;;;;;;;;;;;;5074090;28;995;-77
2022/01/15 15:25:40;;;;;;;;;;;;;;;;;;5073971;28;1949;-80
2022/01/15 15:28:06;;;;;;;;;;;;;;;;;;5072610;28;888;-78
2022/01/15 15:30:32;;;;;;;;;;;;;;;;;;5054746;28;1248;-78
2022/01/15 15:32:57;;;;;;;;;;;;;;;;;;5073049;28;1035;-77
2022/01/15 15:35:22;;;;;;;;;;;;;;;;;;5072325;28;1232;-79
2022/01/15 15:37:51;;;;;;;;;;;;;;;;;;5055633;28;1306;-78
2022/01/15 15:40:17;;;;;;;;;;;;;;;;;;5073113;28;1279;-78
2022/01/15 15:42:42;;;;;;;;;;;;;;;;;;5073693;28;885;-77
2022/01/15 15:45:08;;;;;;;;;;;;;;;;;;5071959;28;1965;-78
2022/01/15 15:47:33;;;;;;;;;;;;;;;;;;5073189;28;798;-78
2022/01/15 15:49:59;;;;;;;;;;;;;;;;;;5071691;28;1288;-77
2022/01/15 15:52:24;;;;;;;;;;;;;;;;;;5072178;28;1362;-78
2022/01/15 15:54:49;;;;;;;;;;;;;;;;;;5072748;28;955;-77
2022/01/15 15:57:15;;;;;;;;;;;;;;;;;;5072281;28;1039;-77
2022/01/15 15:59:41;;;;;;;;;;;;;;;;;;5055628;28;1262;-78
2022/01/15 16:02:06;;;;;;;;;;;;;;;;;;5055753;28;1198;-77
2022/01/15 16:04:31;;;;;;;;;;;;;;;;;;5055628;28;1354;-78
2022/01/15 16:06:57;;;;;;;;;;;;;;;;;;5072147;28;1969;-78
2022/01/15 16:09:22;;;;;;;;;;;;;;;;;;5072347;28;943;-78
2022/01/15 16:11:48;;;;;;;;;;;;;;;;;;5055280;28;1445;-78
2022/01/15 16:14:16;;;;;;;;;;;;;;;;;;5073154;28;840;-78
2022/01/15 16:16:42;;;;;;;;;;;;;;;;;;5072087;28;833;-78
2022/01/15 16:19:07;;;;;;;;;;;;;;;;;;5071832;28;1179;-78
2022/01/15 16:21:34;;;;;;;;;;;;;;;;;;5072345;28;1246;-78
2022/01/15 16:24:00;;;;;;;;;;;;;;;;;;5055230;28;1327;-77
2022/01/15 16:26:25;;;;;;;;;;;;;;;;;;5054660;28;1972;-78
2022/01/15 16:28:50;;;;;;;;;;;;;;;;;;5073695;28;967;-78
2022/01/15 16:31:16;;;;;;;;;;;;;;;;;;5071521;28;879;-78
2022/01/15 16:33:41;;;;;;;;;;;;;;;;;;5072643;28;880;-78
2022/01/15 16:36:06;;;;;;;;;;;;;;;;;;5072291;28;957;-78
2022/01/15 16:38:33;;;;;;;;;;;;;;;;;;5071411;28;1315;-78
2022/01/15 16:40:58;;;;;;;;;;;;;;;;;;5070667;28;1265;-78
2022/01/15 16:43:24;;;;;;;;;;;;;;;;;;5070566;28;1296;-77
2022/01/15 16:45:49;;;;;;;;;;;;;;;;;;5071224;28;1917;-78
2022/01/15 16:48:14;;;;;;;;;;;;;;;;;;5071155;28;908;-77
2022/01/15 16:50:42;;;;;;;;;;;;;;;;;;5070746;28;889;-77
2022/01/15 16:53:07;;;;;;;;;;;;;;;;;;5053936;28;1188;-78
2022/01/15 16:55:33;;;;;;;;;;;;;;;;;;5071601;28;884;-77
2022/01/15 16:57:58;;;;;;;;;;;;;;;;;;5072222;28;880;-77
2022/01/15 17:00:24;;;;;;;;;;;;;;;;;;5070335;28;1081;-78
2022/01/15 17:02:49;;;;;;;;;;;;;;;;;;5070602;28;1284;-78
2022/01/15 17:05:15;;;;;;;;;;;;;;;;;;5070444;28;1890;-78
2022/01/15 17:07:40;;;;;;;;;;;;;;;;;;5071738;28;908;-78
2022/01/15 17:10:06;;;;;;;;;;;;;;;;;;5071223;28;1333;-78
2022/01/15 17:12:31;;;;;;;;;;;;;;;;;;5053038;28;1374;-77
2022/01/15 17:14:57;;;;;;;;;;;;;;;;;;5071533;28;854;-78
2022/01/15 17:17:22;;;;;;;;;;;;;;;;;;5070958;28;892;-77
2022/01/15 17:19:48;;;;;;;;;;;;;;;;;;5071427;28;1077;-77
2022/01/15 17:22:13;;;;;;;;;;;;;;;;;;5053118;28;1292;-78
2022/01/15 17:24:39;;;;;;;;;;;;;;;;;;5070712;28;1246;-77
2022/01/15 17:27:04;;;;;;;;;;;;;;;;;;5070314;28;1906;-78
2022/01/15 17:29:29;;;;;;;;;;;;;;;;;;5071841;28;849;-77